Time;durP1;ratioP1;P1;durP2;ratioP2;P2;SDS_P1;SDS_P2;PMS_P1;PMS_P2;Temp;Humidity;BMP_temperature;BMP_pressure;BME280_temperature;BME280_humidity;BME280_pressure;Samples;Min_cycle;Max_cycle;Signal;HPM_P1;HPM_P2
2023/04/03 00:00:46;;;;;;;1.00;0.82;;;;;;;5.21;74.50;95725.63;5076017;28;20170;-66
2023/04/03 00:03:18;;;;;;;0.73;0.73;;;;;;;5.20;74.46;95726.53;5075877;28;20450;-64
2023/04/03 00:05:47;;;;;;;1.02;0.93;;;;;;;5.28;75.07;95731.50;5076101;28;20550;-60
2023/04/03 00:08:15;;;;;;;4.47;0.88;;;;;;;5.27;74.64;95732.41;5076092;28;20102;-65
2023/04/03 00:10:42;;;;;;;1.40;1.00;;;;;;;5.33;74.50;95734.81;5075976;28;20047;-66
2023/04/03 00:13:11;;;;;;;1.25;0.82;;;;;;;5.32;74.64;95735.69;5075909;28;20128;-61
2023/04/03 00:15:39;;;;;;;0.60;0.60;;;;;;;5.35;74.15;95738.19;5076008;28;20049;-62
2023/04/03 00:18:06;;;;;;;2.25;1.15;;;;;;;5.23;74.76;95736.81;5075845;28;20135;-60
2023/04/03 00:20:35;;;;;;;1.35;0.80;;;;;;;5.11;74.47;95732.84;5075659;28;20103;-58
2023/04/03 00:23:03;;;;;;;1.90;1.10;;;;;;;5.06;75.01;95732.13;5075686;28;20052;-65
2023/04/03 00:25:31;;;;;;;0.95;0.88;;;;;;;5.04;74.82;95733.91;5075697;28;20058;-60
2023/04/03 00:27:58;;;;;;;0.57;0.57;;;;;;;5.07;74.80;95736.41;5075685;28;20051;-60
2023/04/03 00:30:26;;;;;;;2.53;0.85;;;;;;;4.93;74.89;95742.84;5075619;28;20079;-59
2023/04/03 00:32:54;;;;;;;1.52;0.80;;;;;;;4.94;75.28;95735.94;5075511;28;20048;-59
2023/04/03 00:35:23;;;;;;;1.13;1.00;;;;;;;5.04;74.73;95741.69;5075449;28;20044;-63
2023/04/03 00:37:53;;;;;;;1.63;0.80;;;;;;;5.08;74.57;95740.69;5074569;28;20079;-60
2023/04/03 00:40:21;;;;;;;0.90;0.90;;;;;;;5.11;74.84;95737.16;5075475;28;20406;-56
2023/04/03 00:42:52;;;;;;;4.13;1.10;;;;;;;5.12;74.75;95741.47;5075353;28;20102;-64
2023/04/03 00:45:35;;;;;;;2.47;1.38;;;;;;;5.13;74.63;95740.56;5075457;28;20102;-59
2023/04/03 00:48:06;;;;;;;1.25;0.90;;;;;;;5.14;74.18;95739.66;5075274;28;20068;-60
2023/04/03 00:50:36;;;;;;;5.35;1.02;;;;;;;5.14;74.17;95739.66;5075212;28;20127;-63
2023/04/03 00:53:08;;;;;;;0.95;0.93;;;;;;;5.13;73.54;95748.34;5075132;28;20076;-62
2023/04/03 00:55:39;;;;;;;2.47;1.02;;;;;;;5.16;73.63;95748.25;5075130;28;20059;-65
2023/04/03 00:58:08;;;;;;;1.33;1.08;;;;;;;5.18;74.01;95749.06;5075014;28;20083;-59
2023/04/03 01:00:37;;;;;;;1.27;1.02;;;;;;;5.18;73.86;95747.31;5075075;28;20072;-60
2023/04/03 01:03:04;;;;;;;1.65;0.80;;;;;;;5.12;74.36;95757.84;5075075;28;20048;-62
2023/04/03 01:05:32;;;;;;;1.10;1.00;;;;;;;5.10;74.60;95762.25;5074976;28;20056;-61
2023/04/03 01:08:00;;;;;;;0.80;0.80;;;;;;;5.08;74.27;95758.84;5075283;28;20044;-63
2023/04/03 01:10:29;;;;;;;1.10;0.90;;;;;;;5.10;74.04;95757.06;5074916;28;20567;-57
2023/04/03 01:12:56;;;;;;;0.70;0.70;;;;;;;5.14;73.94;95750.03;5074756;28;20131;-55
2023/04/03 01:15:26;;;;;;;0.90;0.90;;;;;;;5.17;73.49;95748.22;5074724;28;20125;-62
2023/04/03 01:17:56;;;;;;;2.15;0.93;;;;;;;5.17;73.38;95745.63;5074804;28;20099;-61
2023/04/03 01:20:52;;;;;;;1.13;0.95;;;;;;;5.17;72.81;95748.22;5075045;28;20481;-56
2023/04/03 01:23:39;;;;;;;1.40;1.30;;;;;;;5.11;73.28;95748.38;5074622;28;20044;-63
2023/04/03 01:26:09;;;;;;;1.98;1.00;;;;;;;5.06;73.84;95752.88;5074490;28;20121;-64
2023/04/03 01:28:37;;;;;;;;;;;;;;;4.97;73.98;95753.13;5075035;28;20056;-61
2023/04/03 01:31:15;;;;;;;1.00;0.90;;;;;;;4.92;74.63;95750.66;5074404;28;20394;-64
2023/04/03 01:33:44;;;;;;;1.15;0.90;;;;;;;4.97;74.76;95753.97;5074585;28;20041;-57
2023/04/03 01:36:15;;;;;;;1.45;0.90;;;;;;;4.92;74.18;95748.06;5074251;28;20048;-64
2023/04/03 01:38:42;;;;;;;1.10;0.90;;;;;;;4.68;75.20;95753.91;5074250;28;20049;-59
2023/04/03 01:41:10;;;;;;;0.95;0.95;;;;;;;4.73;75.27;95756.34;5074304;28;20482;-62
2023/04/03 01:43:38;;;;;;;0.73;0.73;;;;;;;4.76;75.05;95753.66;5074416;28;20044;-61
2023/04/03 01:46:10;;;;;;;1.67;1.00;;;;;;;4.61;74.94;95738.56;5074103;28;20048;-59
2023/04/03 01:48:38;;;;;;;1.70;0.93;;;;;;;4.59;74.92;95736.00;5074068;28;20082;-64
2023/04/03 01:51:06;;;;;;;1.13;0.90;;;;;;;4.61;75.37;95739.38;5074084;28;20063;-61
2023/04/03 01:53:35;;;;;;;1.80;1.00;;;;;;;4.66;74.77;95739.25;5073912;28;20049;-69
2023/04/03 01:56:02;;;;;;;0.98;0.93;;;;;;;4.58;75.07;95747.28;5073870;28;20053;-61
2023/04/03 01:58:30;;;;;;;3.60;2.90;;;;;;;4.60;75.79;95744.63;5073816;28;20048;-65
2023/04/03 02:00:58;;;;;;;1.40;1.30;;;;;;;4.60;76.12;95745.47;5073632;28;20049;-64
2023/04/03 02:03:26;;;;;;;1.00;0.90;;;;;;;4.54;76.51;95749.06;5073515;28;20056;-57
2023/04/03 02:05:53;;;;;;;1.90;1.40;;;;;;;4.58;76.46;95760.22;5073748;28;20152;-61
2023/04/03 02:08:22;;;;;;;1.00;0.98;;;;;;;4.62;75.78;95760.97;5073825;28;20132;-61
2023/04/03 02:10:50;;;;;;;2.50;1.40;;;;;;;4.58;75.53;95762.81;5073816;28;20056;-53
2023/04/03 02:13:19;;;;;;;3.50;1.40;;;;;;;4.43;75.71;95767.47;5073725;28;20072;-61
2023/04/03 02:15:47;;;;;;;3.85;1.25;;;;;;;4.37;76.06;95765.03;5073675;28;20048;-57
2023/04/03 02:18:15;;;;;;;1.33;1.00;;;;;;;4.37;75.71;95759.88;5073719;28;20048;-67
2023/04/03 02:20:42;;;;;;;1.48;1.17;;;;;;;4.42;75.90;95760.63;5073529;28;20055;-59
2023/04/03 02:23:11;;;;;;;0.98;0.90;;;;;;;4.42;75.28;95764.94;5073586;28;20118;-62
2023/04/03 02:25:40;;;;;;;1.33;1.00;;;;;;;4.43;75.49;95761.47;5073342;28;20529;-60
2023/04/03 02:28:08;;;;;;;1.20;1.10;;;;;;;4.44;75.14;95770.94;5073420;28;20045;-65
2023/04/03 02:30:36;;;;;;;0.88;0.88;;;;;;;4.50;75.37;95759.56;5073412;28;20040;-66
2023/04/03 02:33:05;;;;;;;1.52;0.90;;;;;;;4.47;75.14;95757.03;5073405;28;20068;-63
2023/04/03 02:35:32;;;;;;;1.20;1.10;;;;;;;4.41;75.10;95765.81;5073358;28;20433;-66
2023/04/03 02:37:59;;;;;;;1.15;1.05;;;;;;;4.40;75.64;95769.31;5073164;28;20128;-63
2023/04/03 02:40:27;;;;;;;1.20;1.10;;;;;;;4.41;75.85;95771.00;5073295;28;20052;-56
2023/04/03 02:42:56;;;;;;;1.50;1.20;;;;;;;4.36;77.12;95768.53;5073178;28;20041;-60
2023/04/03 02:45:23;;;;;;;3.38;1.20;;;;;;;4.29;77.33;95765.25;5073127;28;20053;-55
2023/04/03 02:47:51;;;;;;;1.05;1.00;;;;;;;4.33;77.69;95772.97;5073067;28;20080;-54
2023/04/03 02:50:18;;;;;;;3.63;1.15;;;;;;;4.40;77.61;95759.78;5073051;28;20053;-58
2023/04/03 02:52:45;;;;;;;1.77;1.10;;;;;;;4.38;77.36;95756.41;5073103;28;20101;-57
2023/04/03 02:55:15;;;;;;;2.28;1.05;;;;;;;4.34;77.54;95764.28;5073007;28;20444;-58
2023/04/03 02:57:42;;;;;;;2.92;1.13;;;;;;;4.33;77.85;95765.19;5073070;28;20045;-54
2023/04/03 03:00:12;;;;;;;1.13;1.05;;;;;;;4.27;78.51;95769.63;5072867;28;20076;-62
2023/04/03 03:02:39;;;;;;;1.70;1.33;;;;;;;4.24;78.73;95769.69;5072651;28;20059;-67
2023/04/03 03:05:07;;;;;;;2.47;1.35;;;;;;;4.27;78.95;95771.34;5072859;28;20486;-60
2023/04/03 03:07:34;;;;;;;1.30;1.20;;;;;;;4.36;78.81;95760.75;5073031;28;20414;-63
2023/04/03 03:10:01;;;;;;;0.90;0.90;;;;;;;4.41;78.64;95764.09;5072935;28;20052;-60
2023/04/03 03:12:28;;;;;;;1.15;1.05;;;;;;;4.46;78.06;95757.94;5072850;28;20402;-63
2023/04/03 03:14:56;;;;;;;0.95;0.95;;;;;;;4.42;77.99;95759.75;5072993;28;20410;-65
2023/04/03 03:17:24;;;;;;;1.23;1.08;;;;;;;4.41;77.93;95765.81;5072952;28;20051;-63
2023/04/03 03:19:52;;;;;;;1.02;1.00;;;;;;;4.38;77.93;95771.09;5072771;28;20044;-61
2023/04/03 03:22:19;;;;;;;1.83;1.20;;;;;;;4.34;78.36;95759.97;5072801;28;20053;-58
2023/04/03 03:24:48;;;;;;;1.42;1.20;;;;;;;4.34;78.12;95765.16;5072731;28;20055;-61
2023/04/03 03:27:15;;;;;;;1.75;1.20;;;;;;;4.37;77.87;95759.03;5072613;28;20057;-60
2023/04/03 03:29:43;;;;;;;2.63;1.20;;;;;;;4.28;77.94;95758.38;5072690;28;20498;-63
2023/04/03 03:32:10;;;;;;;1.02;0.93;;;;;;;4.29;77.77;95759.22;5072777;28;20052;-61
2023/04/03 03:34:39;;;;;;;1.17;0.90;;;;;;;4.24;77.93;95751.56;5072642;28;20071;-64
2023/04/03 03:37:06;;;;;;;23.35;18.83;;;;;;;4.24;77.54;95764.53;5072635;28;20127;-57
2023/04/03 03:39:34;;;;;;;12.52;10.27;;;;;;;4.15;77.26;95757.84;5072612;28;20410;-56
2023/04/03 03:42:01;;;;;;;5.45;2.42;;;;;;;4.14;77.08;95750.09;5072630;28;20049;-58
2023/04/03 03:44:29;;;;;;;4.57;2.40;;;;;;;4.17;77.00;95747.44;5072806;28;20055;-61
2023/04/03 03:46:57;;;;;;;2.25;2.05;;;;;;;4.10;77.09;95751.94;5072394;28;20497;-59
2023/04/03 03:49:24;;;;;;;1.30;1.20;;;;;;;3.99;78.86;95739.25;5072489;28;20053;-61
2023/04/03 03:51:53;;;;;;;2.15;1.60;;;;;;;3.98;79.91;95745.31;5072733;28;20131;-63
2023/04/03 03:54:20;;;;;;;2.03;1.40;;;;;;;4.04;79.85;95742.56;5072450;28;20041;-60
2023/04/03 03:56:48;;;;;;;1.90;1.40;;;;;;;4.16;79.89;95740.56;5072479;28;20501;-58
2023/04/03 03:59:16;;;;;;;2.92;1.52;;;;;;;4.28;79.32;95737.66;5072457;28;20417;-61
2023/04/03 04:01:43;;;;;;;1.55;1.45;;;;;;;4.25;78.54;95736.91;5072580;28;20048;-64
2023/04/03 04:04:11;;;;;;;4.88;1.27;;;;;;;4.21;78.00;95736.13;5072097;28;20040;-58
2023/04/03 04:06:38;;;;;;;1.50;1.40;;;;;;;4.18;78.19;95733.59;5072346;28;20053;-58
2023/04/03 04:09:07;;;;;;;1.42;1.33;;;;;;;4.21;78.46;95740.47;5072481;28;20387;-58
2023/04/03 04:11:35;;;;;;;3.78;1.65;;;;;;;4.27;78.54;95738.56;5072408;28;20052;-67
2023/04/03 04:14:02;;;;;;;1.48;1.38;;;;;;;4.19;78.57;95737.03;5074913;28;20076;-65
2023/04/03 04:16:33;;;;;;;1.38;1.27;;;;;;;4.10;78.76;95733.81;5075923;28;20101;-59
2023/04/03 04:19:03;;;;;;;1.70;1.60;;;;;;;4.16;78.94;95735.41;5075849;28;20044;-59
2023/04/03 04:21:31;;;;;;;;;;;;;;;4.25;78.87;95736.91;5076336;28;20406;-62
2023/04/03 04:23:59;;;;;;;4.00;1.20;;;;;;;4.33;79.07;95747.91;5075792;28;19920;-62
2023/04/03 04:26:28;;;;;;;5.10;1.30;;;;;;;4.38;78.72;95747.78;5075711;28;20059;-61
2023/04/03 04:28:56;;;;;;;1.23;1.13;;;;;;;4.52;79.00;95763.78;5075738;28;20076;-58
2023/04/03 04:31:23;;;;;;;1.35;1.25;;;;;;;4.70;78.44;95765.94;5075678;28;20060;-53
2023/04/03 04:33:50;;;;;;;1.83;1.45;;;;;;;4.86;78.27;95771.56;5075658;28;20406;-57
2023/04/03 04:36:17;;;;;;;1.58;1.30;;;;;;;4.99;77.53;95777.25;5075640;28;20142;-58
2023/04/03 04:38:45;;;;;;;2.22;1.42;;;;;;;5.11;77.79;95776.03;5075573;28;20049;-62
2023/04/03 04:41:15;;;;;;;1.85;1.30;;;;;;;5.38;77.14;95782.19;5075469;28;20453;-57
2023/04/03 04:43:45;;;;;;;1.40;1.30;;;;;;;5.61;76.58;95791.03;5075340;28;20482;-60
2023/04/03 04:46:13;;;;;;;4.95;1.35;;;;;;;5.92;75.37;95795.28;5075305;28;20119;-61
2023/04/03 04:48:40;;;;;;;2.25;1.13;;;;;;;6.26;74.72;95801.16;5075450;28;20118;-59
2023/04/03 04:51:09;;;;;;;1.38;1.17;;;;;;;6.67;74.24;95798.09;5075445;28;20052;-60
2023/04/03 04:53:37;;;;;;;4.25;1.42;;;;;;;7.05;72.85;95807.22;5075286;28;20506;-62
2023/04/03 04:56:06;;;;;;;1.75;1.13;;;;;;;7.35;71.02;95806.16;5075119;28;20077;-60
2023/04/03 04:58:33;;;;;;;3.60;1.10;;;;;;;7.69;68.66;95807.47;5075151;28;20494;-58
2023/04/03 05:01:03;;;;;;;2.95;1.15;;;;;;;8.17;67.50;95807.38;5075138;28;20087;-63
2023/04/03 05:03:31;;;;;;;1.80;1.20;;;;;;;8.79;67.05;95815.28;5074921;28;20552;-60
2023/04/03 05:05:59;;;;;;;1.45;1.02;;;;;;;9.52;64.00;95811.28;5074763;28;20482;-65
2023/04/03 05:08:42;;;;;;;4.38;1.30;;;;;;;10.46;62.47;95817.41;5074732;28;20048;-58
2023/04/03 05:11:10;;;;;;;0.85;0.80;;;;;;;11.32;57.93;95826.22;5074998;28;20483;-60
2023/04/03 05:13:38;;;;;;;1.08;1.00;;;;;;;12.08;57.82;95829.22;5074870;28;20052;-54
2023/04/03 05:16:09;;;;;;;2.38;1.00;;;;;;;12.74;54.68;95840.34;5074811;28;20449;-60
2023/04/03 05:18:37;;;;;;;1.00;0.90;;;;;;;13.43;53.32;95833.75;5074772;28;20131;-57
2023/04/03 05:21:04;;;;;;;2.17;1.10;;;;;;;14.07;52.48;95834.25;5074604;28;20177;-57
2023/04/03 05:23:31;;;;;;;1.33;1.00;;;;;;;14.50;52.01;95830.66;5074279;28;20052;-57
2023/04/03 05:26:00;;;;;;;2.70;0.90;;;;;;;15.07;51.30;95820.81;5074506;28;20056;-64
2023/04/03 05:28:27;;;;;;;1.77;0.73;;;;;;;15.51;48.81;95816.06;5074485;28;20049;-60
2023/04/03 05:30:57;;;;;;;3.03;0.90;;;;;;;15.64;48.21;95820.47;5074500;28;20489;-61
2023/04/03 05:33:26;;;;;;;0.90;0.90;;;;;;;15.24;47.70;95834.63;5074455;28;20044;-63
2023/04/03 05:35:54;;;;;;;0.85;0.80;;;;;;;15.06;47.44;95827.03;5074514;28;20409;-64
2023/04/03 05:38:22;;;;;;;0.80;0.80;;;;;;;14.77;48.61;95830.63;5074275;28;20128;-60
2023/04/03 05:40:50;;;;;;;1.10;1.02;;;;;;;14.23;50.09;95818.34;5074398;28;20559;-63
2023/04/03 05:43:18;;;;;;;2.63;2.22;;;;;;;13.96;50.16;95812.13;5074549;28;20060;-61
2023/04/03 05:45:45;;;;;;;7.00;4.30;;;;;;;13.76;51.93;95811.59;5074299;28;20494;-56
2023/04/03 05:48:13;;;;;;;3.38;3.08;;;;;;;13.69;53.16;95812.09;5074163;28;20524;-63
2023/04/03 05:50:42;;;;;;;2.40;2.17;;;;;;;13.83;52.48;95808.56;5074099;28;20531;-63
2023/04/03 05:53:18;;;;;;;3.42;1.52;;;;;;;13.93;52.80;95807.06;5074029;28;20118;-60
2023/04/03 05:55:45;;;;;;;1.52;1.42;;;;;;;13.82;53.04;95809.53;5074137;28;20061;-61
2023/04/03 05:58:13;;;;;;;2.90;2.20;;;;;;;13.62;53.56;95812.47;5074303;28;20418;-63
2023/04/03 06:00:41;;;;;;;11.13;5.68;;;;;;;13.73;52.92;95826.72;5073717;28;20056;-61
2023/04/03 06:03:08;;;;;;;6.97;3.40;;;;;;;13.89;53.57;95830.09;5073708;28;20068;-63
2023/04/03 06:05:36;;;;;;;1.83;1.42;;;;;;;13.62;54.85;95820.34;5073819;28;20044;-60
2023/04/03 06:08:05;;;;;;;1.42;1.33;;;;;;;13.49;55.35;95830.75;5074035;28;20052;-59
2023/04/03 06:10:32;;;;;;;2.63;1.40;;;;;;;13.74;54.38;95831.88;5073669;28;20040;-60
2023/04/03 06:12:59;;;;;;;9.50;1.58;;;;;;;13.80;54.64;95825.41;5073730;28;20094;-63
2023/04/03 06:15:27;;;;;;;11.30;1.60;;;;;;;13.80;53.39;95835.06;5073569;28;20098;-62
2023/04/03 06:17:55;;;;;;;3.80;1.35;;;;;;;13.95;53.54;95834.09;5073555;28;20075;-54
2023/04/03 06:20:22;;;;;;;1.83;1.30;;;;;;;14.03;50.96;95826.56;5073434;28;20131;-62
2023/04/03 06:22:50;;;;;;;4.63;1.30;;;;;;;14.18;50.60;95834.41;5073555;28;20044;-61
2023/04/03 06:25:19;;;;;;;1.55;1.45;;;;;;;14.32;50.44;95853.72;5073849;28;20421;-61
2023/04/03 06:27:46;;;;;;;3.40;2.35;;;;;;;14.39;49.51;95842.72;5073393;28;20062;-62
2023/04/03 06:30:15;;;;;;;3.08;1.92;;;;;;;14.49;51.42;95839.50;5073318;28;20048;-61
2023/04/03 06:32:42;;;;;;;3.85;1.45;;;;;;;14.67;51.10;95853.25;5073427;28;20049;-64
2023/04/03 06:35:10;;;;;;;2.72;1.60;;;;;;;14.83;51.34;95854.88;5072860;28;20048;-61
2023/04/03 06:37:37;;;;;;;1.20;1.10;;;;;;;14.79;50.42;95846.34;5073195;28;20048;-67
2023/04/03 06:40:06;;;;;;;2.92;1.33;;;;;;;14.64;49.81;95848.19;5073237;28;20049;-66
2023/04/03 06:42:34;;;;;;;2.05;1.20;;;;;;;14.71;49.88;95848.59;5073255;28;20581;-57
2023/04/03 06:45:01;;;;;;;2.08;1.25;;;;;;;14.75;50.20;95848.31;5073206;28;20090;-62
2023/04/03 06:47:29;;;;;;;2.65;1.45;;;;;;;14.74;50.11;95841.38;5073016;28;20048;-59
2023/04/03 06:49:56;;;;;;;2.88;1.90;;;;;;;14.83;49.85;95841.72;5073022;28;20044;-61
2023/04/03 06:52:23;;;;;;;1.92;1.70;;;;;;;14.94;48.79;95849.75;5073163;28;20127;-62
2023/04/03 06:54:56;;;;;;;1.90;1.52;;;;;;;15.09;48.11;95847.91;5073170;28;20047;-58
2023/04/03 06:57:24;;;;;;;4.72;1.45;;;;;;;15.21;46.18;95840.94;5073209;28;20070;-59
2023/04/03 06:59:53;;;;;;;1.20;1.10;;;;;;;15.39;46.55;95844.09;5073110;28;20406;-61
2023/04/03 07:02:20;;;;;;;1.17;0.95;;;;;;;15.36;44.91;95843.47;5072889;28;20044;-59
2023/04/03 07:04:51;;;;;;;1.05;0.88;;;;;;;15.43;45.26;95843.88;5072957;28;20094;-63
2023/04/03 07:07:20;;;;;;;1.50;1.40;;;;;;;15.59;44.89;95843.69;5072929;28;20488;-56
2023/04/03 07:09:47;;;;;;;1.55;1.45;;;;;;;15.67;44.78;95841.34;5072860;28;20048;-57
2023/04/03 07:12:15;;;;;;;0.90;0.90;;;;;;;15.72;44.28;95836.63;5072942;28;20048;-59
2023/04/03 07:14:43;;;;;;;1.52;1.10;;;;;;;15.80;43.57;95843.97;5072918;28;20094;-62
2023/04/03 07:17:12;;;;;;;3.42;0.90;;;;;;;15.85;42.97;95833.09;5072769;28;20044;-56
2023/04/03 07:19:39;;;;;;;1.40;0.82;;;;;;;15.84;41.97;95836.69;5072919;28;20044;-57
2023/04/03 07:22:06;;;;;;;1.02;0.98;;;;;;;16.01;41.86;95841.66;5072893;28;20461;-62
2023/04/03 07:24:33;;;;;;;1.25;0.95;;;;;;;16.12;43.71;95840.88;5072797;28;20136;-53
2023/04/03 07:27:02;;;;;;;1.23;1.00;;;;;;;16.09;43.44;95841.09;5072757;28;20149;-61
2023/04/03 07:29:29;;;;;;;1.85;0.70;;;;;;;16.22;41.55;95845.50;5072886;28;20123;-65
2023/04/03 07:31:56;;;;;;;2.05;0.80;;;;;;;16.34;40.14;95835.88;5072721;28;20053;-58
2023/04/03 07:34:25;;;;;;;1.65;0.80;;;;;;;16.36;40.95;95834.78;5073102;28;20059;-53
2023/04/03 07:36:52;;;;;;;0.98;0.60;;;;;;;16.33;40.64;95842.94;5072732;28;20048;-63
2023/04/03 07:39:20;;;;;;;1.48;0.70;;;;;;;16.29;41.12;95842.28;5072593;28;20048;-59
2023/04/03 07:41:47;;;;;;;1.05;0.80;;;;;;;16.29;39.83;95842.28;5072579;28;20084;-63
2023/04/03 07:44:14;;;;;;;1.50;0.80;;;;;;;16.15;39.61;95845.94;5072562;28;20055;-57
2023/04/03 07:46:42;;;;;;;2.17;1.00;;;;;;;16.08;40.87;95849.13;5073064;28;20490;-62
2023/04/03 07:49:09;;;;;;;0.95;0.70;;;;;;;16.11;40.18;95847.13;5076444;28;20041;-61
2023/04/03 07:51:38;;;;;;;0.70;0.70;;;;;;;16.25;40.39;95853.19;5076458;28;20072;-65
2023/04/03 07:54:05;;;;;;;2.00;0.70;;;;;;;16.36;39.83;95855.06;5076370;28;20045;-62
2023/04/03 07:56:33;;;;;;;1.27;0.75;;;;;;;16.42;39.15;95852.81;5076308;28;20573;-55
2023/04/03 07:59:00;;;;;;;0.80;0.75;;;;;;;16.22;38.60;95848.97;5076232;28;20398;-59
2023/04/03 08:01:27;;;;;;;1.52;0.60;;;;;;;16.11;39.43;95841.00;5076312;28;20049;-65
2023/04/03 08:03:54;;;;;;;1.73;0.68;;;;;;;15.81;40.78;95837.75;5076201;28;20057;-64
2023/04/03 08:06:22;;;;;;;1.80;0.90;;;;;;;15.75;40.90;95840.81;5076142;28;20141;-64
2023/04/03 08:08:51;;;;;;;1.02;0.80;;;;;;;15.66;41.49;95844.94;5075925;28;20129;-56
2023/04/03 08:11:20;;;;;;;1.17;0.90;;;;;;;15.49;41.84;95840.84;5076054;28;20080;-61
2023/04/03 08:13:47;;;;;;;2.13;1.00;;;;;;;15.44;40.57;95840.31;5075951;28;20044;-61
2023/04/03 08:16:19;;;;;;;0.73;0.65;;;;;;;15.25;40.98;95842.44;5075893;28;20040;-59
2023/04/03 08:18:46;;;;;;;1.23;0.80;;;;;;;15.09;41.23;95841.78;5075823;28;20138;-66
2023/04/03 08:21:13;;;;;;;5.53;0.60;;;;;;;15.03;39.95;95843.03;5075813;28;20044;-68
2023/04/03 08:23:42;;;;;;;0.90;0.77;;;;;;;14.87;40.64;95838.78;5075663;28;20076;-55
2023/04/03 08:26:13;;;;;;;1.17;0.90;;;;;;;14.81;41.55;95833.91;5075760;28;20128;-59
2023/04/03 08:28:40;;;;;;;;;;;;;;;14.91;41.80;95835.00;5076297;28;20414;-53
2023/04/03 08:31:10;;;;;;;3.58;0.90;;;;;;;15.03;41.15;95829.88;5075609;28;20370;-56
2023/04/03 08:33:39;;;;;;;0.90;0.82;;;;;;;15.34;40.80;95833.03;5075528;28;20137;-63
2023/04/03 08:36:08;;;;;;;0.80;0.80;;;;;;;15.73;40.04;95832.16;5075475;28;20053;-61
2023/04/03 08:38:37;;;;;;;1.80;0.88;;;;;;;15.97;39.01;95826.16;5075517;28;20110;-64
2023/04/03 08:41:15;;;;;;;0.70;0.70;;;;;;;16.07;38.77;95821.06;5075559;28;20131;-58
2023/04/03 08:43:55;;;;;;;1.67;0.85;;;;;;;15.97;39.03;95808.53;5075328;28;20048;-58
2023/04/03 08:46:25;;;;;;;1.52;0.90;;;;;;;16.09;38.52;95800.69;5075305;28;20059;-57
2023/04/03 08:48:54;;;;;;;1.35;0.80;;;;;;;16.02;38.32;95802.94;5075272;28;20048;-64
2023/04/03 08:51:23;;;;;;;2.58;0.80;;;;;;;15.93;38.23;95799.13;5075429;28;20052;-61
2023/04/03 08:53:59;;;;;;;1.08;0.80;;;;;;;16.06;38.66;95799.13;5075345;28;20072;-57
2023/04/03 08:56:28;;;;;;;1.10;0.80;;;;;;;16.22;39.01;95803.28;5075207;28;20056;-61
2023/04/03 08:58:59;;;;;;;3.50;0.73;;;;;;;16.26;38.73;95802.13;5074484;28;20135;-61
2023/04/03 09:01:27;;;;;;;;;;;;;;;16.33;38.27;95805.97;5075890;28;20456;-54
2023/04/03 09:03:55;;;;;;;0.60;0.47;;;;;;;16.19;38.16;95806.16;5074885;28;20293;-57
2023/04/03 09:06:24;;;;;;;1.95;1.20;;;;;;;16.11;39.67;95809.34;5075149;28;20063;-61
2023/04/03 09:09:00;;;;;;;3.30;1.50;;;;;;;16.09;40.02;95801.53;5074983;28;20078;-63
2023/04/03 09:11:41;;;;;;;2.75;1.70;;;;;;;16.09;39.96;95796.25;5074971;28;20110;-56
2023/04/03 09:14:17;;;;;;;2.08;1.55;;;;;;;15.80;40.13;95799.16;5075233;28;20127;-60
2023/04/03 09:16:53;;;;;;;3.97;2.65;;;;;;;15.56;41.08;95802.56;5074966;28;20127;-52
2023/04/03 09:19:29;;;;;;;1.85;1.20;;;;;;;15.32;41.08;95805.94;5074772;28;20131;-61
2023/04/03 09:21:58;;;;;;;3.38;1.77;;;;;;;15.23;41.33;95796.06;5074823;28;20132;-57
2023/04/03 09:24:26;;;;;;;1.33;1.20;;;;;;;15.20;41.63;95785.75;5074721;28;20063;-61
2023/04/03 09:27:00;;;;;;;4.10;1.42;;;;;;;15.21;41.89;95783.00;5074692;28;20135;-63
2023/04/03 09:29:28;;;;;;;4.93;1.33;;;;;;;15.20;41.25;95791.00;5074706;28;20505;-59
2023/04/03 09:32:00;;;;;;;3.25;1.33;;;;;;;15.07;41.97;95790.97;5074490;28;20087;-58
2023/04/03 09:34:29;;;;;;;3.53;1.13;;;;;;;14.94;42.51;95786.56;5074568;28;20493;-63
2023/04/03 09:36:57;;;;;;;1.42;0.98;;;;;;;14.91;42.39;95794.69;5074432;28;20044;-63
2023/04/03 09:39:28;;;;;;;1.35;0.73;;;;;;;14.90;42.27;95793.00;5074398;28;20087;-60
2023/04/03 09:42:04;;;;;;;1.63;1.10;;;;;;;14.95;42.85;95801.41;5074303;28;20127;-59
2023/04/03 09:44:35;;;;;;;1.75;1.20;;;;;;;14.99;42.67;95800.25;5074277;28;20139;-63
2023/04/03 09:47:19;;;;;;;1.42;0.90;;;;;;;14.95;42.63;95798.78;5074254;28;20049;-61
2023/04/03 09:49:47;;;;;;;0.75;0.75;;;;;;;14.95;43.15;95804.03;5074186;28;20055;-62
2023/04/03 09:52:21;;;;;;;0.80;0.80;;;;;;;14.96;41.67;95804.91;5074142;28;20102;-62
2023/04/03 09:54:48;;;;;;;0.60;0.60;;;;;;;14.97;43.13;95803.94;5074035;28;20512;-54
2023/04/03 09:57:18;;;;;;;2.13;0.90;;;;;;;14.93;41.76;95805.09;5073988;28;20041;-56
2023/04/03 09:59:57;;;;;;;2.05;0.82;;;;;;;14.95;42.12;95809.31;5074005;28;20053;-61
2023/04/03 10:02:36;;;;;;;1.15;0.90;;;;;;;14.87;41.83;95819.53;5073792;28;20041;-61
2023/04/03 10:05:06;;;;;;;2.90;1.00;;;;;;;14.75;42.13;95813.25;5073859;28;20048;-60
2023/04/03 10:07:36;;;;;;;3.30;1.00;;;;;;;14.58;42.97;95801.22;5073748;28;20052;-63
2023/04/03 10:10:19;;;;;;;1.30;1.17;;;;;;;14.46;44.24;95811.59;5073200;28;20044;-60
2023/04/03 10:12:49;;;;;;;1.48;0.98;;;;;;;14.49;44.37;95807.91;5073766;28;20410;-60
2023/04/03 10:15:19;;;;;;;2.47;1.00;;;;;;;14.48;44.71;95807.06;5073632;28;20534;-61
2023/04/03 10:17:55;;;;;;;1.20;0.90;;;;;;;14.46;43.56;95808.13;5073687;28;20478;-63
2023/04/03 10:20:32;;;;;;;0.88;0.88;;;;;;;14.37;43.98;95801.69;5073700;28;20445;-53
2023/04/03 10:23:15;;;;;;;1.70;1.00;;;;;;;14.38;43.47;95800.72;5073654;28;20048;-63
2023/04/03 10:25:48;;;;;;;1.15;0.80;;;;;;;14.46;44.20;95794.97;5073545;28;20044;-62
2023/04/03 10:28:23;;;;;;;3.25;0.80;;;;;;;14.51;44.67;95796.34;5073440;28;20109;-59
2023/04/03 10:30:58;;;;;;;1.25;0.90;;;;;;;14.51;43.98;95787.63;5073605;28;20052;-63
2023/04/03 10:33:41;;;;;;;16.75;11.68;;;;;;;14.53;44.22;95788.34;5073360;28;20124;-57
2023/04/03 10:36:26;;;;;;;1.67;0.95;;;;;;;14.40;44.18;95773.41;5073416;28;20501;-61
2023/04/03 10:39:03;;;;;;;1.58;1.35;;;;;;;14.31;45.28;95767.88;5073665;28;20055;-63
2023/04/03 10:41:40;;;;;;;2.22;1.08;;;;;;;14.22;44.22;95777.22;5073550;28;20620;-56
2023/04/03 10:44:18;;;;;;;2.45;1.55;;;;;;;14.08;44.60;95759.69;5073263;28;20060;-58
2023/04/03 10:46:51;;;;;;;4.35;3.00;;;;;;;14.06;45.26;95751.06;5073232;28;20059;-63
2023/04/03 10:49:28;;;;;;;6.45;1.85;;;;;;;14.15;45.47;95742.59;5073170;28;20049;-59
2023/04/03 10:52:04;;;;;;;2.35;1.40;;;;;;;14.12;45.29;95735.72;5073103;28;20437;-59
2023/04/03 10:54:39;;;;;;;2.75;1.10;;;;;;;14.24;45.78;95735.88;5073032;28;20561;-52
2023/04/03 10:57:09;;;;;;;4.70;3.13;;;;;;;14.24;46.50;95738.50;5073126;28;20049;-62
2023/04/03 10:59:42;;;;;;;1.70;1.03;;;;;;;14.38;45.72;95745.47;5073114;28;20559;-63
2023/04/03 11:02:18;;;;;;;2.67;1.08;;;;;;;14.46;45.64;95755.50;5073091;28;20053;-62
2023/04/03 11:04:50;;;;;;;2.10;1.23;;;;;;;14.36;45.65;95752.66;5033441;28;20050;-61
2023/04/03 11:07:23;;;;;;;2.08;1.17;;;;;;;14.43;45.55;95763.59;5033234;28;20103;-58
2023/04/03 11:09:55;;;;;;;0.93;0.90;;;;;;;14.39;45.24;95771.69;5033179;28;20049;-58
2023/04/03 11:12:27;;;;;;;5.13;0.90;;;;;;;14.38;45.61;95764.75;5033035;28;20124;-57
2023/04/03 11:14:58;;;;;;;1.98;1.73;;;;;;;14.23;48.31;95774.47;5032936;28;20045;-60
2023/04/03 11:17:31;;;;;;;3.10;2.15;;;;;;;14.18;49.63;95755.50;5033275;28;20081;-60
2023/04/03 11:20:07;;;;;;;5.05;1.88;;;;;;;14.12;49.95;95761.19;5032959;28;20049;-59
2023/04/03 11:22:40;;;;;;;2.88;1.88;;;;;;;14.03;50.85;95757.38;5034903;28;20407;-59
2023/04/03 11:25:21;;;;;;;4.68;1.90;;;;;;;13.83;53.00;95766.53;5037027;28;20054;-54
2023/04/03 11:27:50;;;;;;;;;;;;;;;13.72;53.61;95767.19;5037518;28;20103;-56
2023/04/03 11:30:22;;;;;;;9.85;2.20;;;;;;;13.54;54.56;95766.59;5036996;28;19943;-58
2023/04/03 11:33:04;;;;;;;3.92;2.50;;;;;;;13.33;55.69;95777.47;5037076;28;20042;-53
2023/04/03 11:35:33;;;;;;;4.05;2.40;;;;;;;13.30;55.88;95770.59;5037062;28;20454;-60
2023/04/03 11:38:05;;;;;;;7.78;2.75;;;;;;;13.31;56.70;95772.28;5037038;28;20053;-58
2023/04/03 11:40:35;;;;;;;3.80;1.88;;;;;;;13.33;55.92;95772.19;5036737;28;20050;-64
2023/04/03 11:43:08;;;;;;;2.97;1.90;;;;;;;13.31;55.65;95771.44;5036670;28;20491;-57
2023/04/03 11:45:55;;;;;;;6.57;2.70;;;;;;;13.32;56.53;95750.34;5036761;28;20511;-61
2023/04/03 11:49:02;;;;;;;5.82;2.90;;;;;;;13.36;57.17;95751.81;5036557;28;20111;-60
2023/04/03 11:51:53;;;;;;;5.68;2.88;;;;;;;13.35;58.23;95765.91;5031735;28;20136;-53